Time;durP1;ratioP1;P1;durP2;ratioP2;P2;SDS_P1;SDS_P2;PMS_P1;PMS_P2;Temp;Humidity;BMP_temperature;BMP_pressure;BME280_temperature;BME280_humidity;BME280_pressure;Samples;Min_cycle;Max_cycle;Signal;HPM_P1;HPM_P2
2023/01/21 00:01:55;;;;;;;13.90;8.43;;;;;;;1.50;100.00;92819.44;5042191;28;20020;-49
2023/01/21 00:04:20;;;;;;;15.07;9.55;;;;;;;1.46;100.00;92808.13;5046176;28;20036;-49
2023/01/21 00:06:45;;;;;;;15.32;9.77;;;;;;;1.49;100.00;92820.69;5046363;28;20021;-50
2023/01/21 00:09:11;;;;;;;13.00;8.48;;;;;;;1.43;100.00;92819.25;5044916;28;20033;-52
2023/01/21 00:11:36;;;;;;;14.65;11.15;;;;;;;1.22;100.00;92824.34;5036793;28;20032;-49
2023/01/21 00:14:02;;;;;;;13.93;9.45;;;;;;;1.34;100.00;92831.16;5047434;28;20020;-49
2023/01/21 00:16:40;;;;;;;13.95;9.65;;;;;;;1.20;100.00;92818.66;5048398;28;20280;-50
2023/01/21 00:19:05;;;;;;;18.88;11.00;;;;;;;0.98;100.00;92812.59;5041630;28;20463;-48
2023/01/21 00:21:30;;;;;;;13.32;9.85;;;;;;;1.07;100.00;92823.19;5045692;28;20037;-51
2023/01/21 00:23:56;;;;;;;35.45;19.40;;;;;;;1.03;100.00;92823.47;5043265;28;20029;-49
2023/01/21 00:26:21;;;;;;;19.52;13.38;;;;;;;0.93;100.00;92816.84;5043250;28;20029;-49
2023/01/21 00:28:47;;;;;;;15.50;10.30;;;;;;;0.87;100.00;92813.41;5043526;28;20033;-49
2023/01/21 00:31:12;;;;;;;17.95;11.55;;;;;;;0.98;100.00;92818.78;5040570;28;20018;-50
2023/01/21 00:33:38;;;;;;;12.50;8.68;;;;;;;0.94;100.00;92809.41;5044690;28;20024;-50
2023/01/21 00:36:03;;;;;;;12.38;8.80;;;;;;;0.82;100.00;92792.44;5040220;28;20022;-48
2023/01/21 00:38:29;;;;;;;12.05;7.70;;;;;;;0.78;100.00;92791.94;5063313;28;20063;-49
2023/01/21 00:40:59;;;;;;;12.63;8.10;;;;;;;0.72;100.00;92789.28;5048297;28;20029;-48
2023/01/21 00:43:25;;;;;;;11.73;7.53;;;;;;;0.69;100.00;92803.13;5044920;28;20028;-49
2023/01/21 00:45:50;;;;;;;13.35;8.38;;;;;;;0.83;100.00;92799.34;5047378;28;20030;-49
2023/01/21 00:48:16;;;;;;;14.45;8.65;;;;;;;0.71;100.00;92792.50;5041075;28;20037;-50
2023/01/21 00:50:41;;;;;;;12.57;9.13;;;;;;;0.63;100.00;92786.84;5040471;28;20017;-48
2023/01/21 00:53:06;;;;;;;17.25;10.02;;;;;;;0.62;100.00;92790.06;5040557;28;20455;-51
2023/01/21 00:55:32;;;;;;;18.63;9.32;;;;;;;0.53;100.00;92780.22;5042073;28;20723;-50
2023/01/21 00:57:57;;;;;;;12.23;7.43;;;;;;;0.38;100.00;92765.47;5042980;28;20044;-49
2023/01/21 01:00:23;;;;;;;17.13;8.73;;;;;;;0.44;100.00;92772.38;5045563;28;20031;-49
2023/01/21 01:02:48;;;;;;;15.07;8.48;;;;;;;0.42;100.00;92755.84;5047688;28;20025;-48
2023/01/21 01:05:14;;;;;;;15.10;8.48;;;;;;;0.42;100.00;92766.69;5050215;28;20488;-49
2023/01/21 01:07:42;;;;;;;12.23;7.43;;;;;;;0.58;100.00;92784.16;5047558;28;20400;-48
2023/01/21 01:10:08;;;;;;;11.85;7.75;;;;;;;0.62;100.00;92785.38;5048712;28;20032;-49
2023/01/21 01:12:34;;;;;;;10.60;7.20;;;;;;;0.76;100.00;92769.97;5046077;28;20021;-50
2023/01/21 01:14:59;;;;;;;12.70;8.15;;;;;;;0.85;100.00;92763.50;5041898;28;20464;-50
2023/01/21 01:17:25;;;;;;;16.23;9.23;;;;;;;0.66;100.00;92768.81;5047622;28;20032;-49
2023/01/21 01:19:50;;;;;;;12.05;8.32;;;;;;;0.55;100.00;92763.44;5047678;28;20029;-54
2023/01/21 01:22:16;;;;;;;16.88;9.43;;;;;;;0.51;100.00;92769.13;5044536;28;20032;-51
2023/01/21 01:24:41;;;;;;;15.20;9.23;;;;;;;0.60;100.00;92766.13;5047929;28;20056;-52
2023/01/21 01:27:06;;;;;;;16.95;10.07;;;;;;;0.41;100.00;92750.91;5048301;28;20029;-50
2023/01/21 01:29:32;;;;;;;18.98;10.73;;;;;;;0.20;100.00;92760.59;5049382;28;20067;-51
2023/01/21 01:31:58;;;;;;;22.33;11.88;;;;;;;0.17;100.00;92756.19;5042611;28;20078;-51
2023/01/21 01:34:23;;;;;;;21.08;10.38;;;;;;;0.20;100.00;92757.88;5048575;28;20021;-51
2023/01/21 01:36:49;;;;;;;19.00;10.70;;;;;;;0.32;100.00;92760.09;5045054;28;20032;-51
2023/01/21 01:39:14;;;;;;;17.95;10.95;;;;;;;0.38;100.00;92751.91;5043856;28;20041;-53
2023/01/21 01:41:40;;;;;;;20.88;11.50;;;;;;;0.52;100.00;92748.16;5040489;28;20025;-53
2023/01/21 01:44:43;;;;;;;20.65;11.75;;;;;;;0.36;100.00;92738.84;5039109;28;20032;-51
2023/01/21 01:47:09;;;;;;;20.05;10.40;;;;;;;0.31;100.00;92727.97;5047891;28;20032;-51
2023/01/21 01:49:34;;;;;;;27.92;14.65;;;;;;;0.59;100.00;92753.78;5038771;28;20020;-51
2023/01/21 01:52:02;;;;;;;28.50;17.08;;;;;;;0.66;100.00;92745.09;5040322;28;20478;-52
2023/01/21 01:54:31;;;;;;;56.08;32.20;;;;;;;0.63;100.00;92739.91;5046669;28;20033;-52
2023/01/21 01:56:59;;;;;;;20.02;12.32;;;;;;;0.70;100.00;92742.84;5044221;28;20025;-52
2023/01/21 01:59:25;;;;;;;18.50;11.13;;;;;;;0.56;100.00;92719.47;5039984;28;20028;-51
2023/01/21 02:01:51;;;;;;;15.80;10.50;;;;;;;0.61;100.00;92736.97;5038168;28;20083;-51
2023/01/21 02:04:20;;;;;;;16.52;10.15;;;;;;;0.62;100.00;92743.91;5047742;28;20025;-53
2023/01/21 02:06:46;;;;;;;16.95;9.95;;;;;;;0.68;100.00;92742.63;5042808;28;20028;-49
2023/01/21 02:09:12;;;;;;;14.98;9.52;;;;;;;0.77;100.00;92741.59;5045407;28;20821;-50
2023/01/21 02:11:38;;;;;;;17.40;10.65;;;;;;;0.70;100.00;92737.44;5042566;28;20117;-51
2023/01/21 02:14:04;;;;;;;18.25;11.20;;;;;;;0.71;100.00;92738.16;5042728;28;20040;-51
2023/01/21 02:16:35;;;;;;;21.00;11.40;;;;;;;0.65;100.00;92732.03;5045272;28;20021;-51
2023/01/21 02:19:37;;;;;;;18.98;11.25;;;;;;;0.43;100.00;92727.47;5046068;28;20040;-51
2023/01/21 02:22:20;;;;;;;18.33;10.60;;;;;;;0.31;100.00;92733.41;5044710;28;20029;-50
2023/01/21 02:25:07;;;;;;;29.00;11.43;;;;;;;0.10;100.00;92726.84;5042483;28;20024;-51
2023/01/21 02:27:56;;;;;;;40.47;9.75;;;;;;;0.06;100.00;92716.25;5047804;28;20556;-53
2023/01/21 02:30:28;;;;;;;39.33;10.18;;;;;;;-0.02;100.00;92707.13;5047385;28;20068;-50
2023/01/21 02:33:30;;;;;;;30.17;14.35;;;;;;;0.14;100.00;92719.91;5035742;28;20041;-50
2023/01/21 02:36:13;;;;;;;25.73;9.35;;;;;;;0.10;100.00;92718.69;5043488;28;20086;-54
2023/01/21 02:38:47;;;;;;;33.15;10.95;;;;;;;0.30;100.00;92735.41;5047161;28;20527;-52
2023/01/21 02:41:41;;;;;;;23.63;11.63;;;;;;;0.29;100.00;92731.22;5044954;28;20443;-52
2023/01/21 02:44:15;;;;;;;24.05;13.07;;;;;;;0.31;100.00;92719.84;5047297;28;20556;-51
2023/01/21 02:46:53;;;;;;;23.23;11.23;;;;;;;0.16;100.00;92722.13;5043716;28;20026;-51
2023/01/21 02:49:39;;;;;;;20.13;11.63;;;;;;;0.33;100.00;92711.94;5036385;28;20041;-51
2023/01/21 02:52:04;;;;;;;24.65;12.32;;;;;;;0.16;100.00;92712.00;5038964;28;20022;-53
2023/01/21 02:54:39;;;;;;;29.65;13.23;;;;;;;0.10;100.00;92708.59;5043933;28;20021;-52
2023/01/21 02:57:08;;;;;;;28.65;13.23;;;;;;;0.06;100.00;92702.69;5044898;28;20025;-52
2023/01/21 02:59:34;;;;;;;25.90;15.18;;;;;;;0.16;100.00;92703.13;5046764;28;20557;-53
2023/01/21 03:02:32;;;;;;;31.35;13.07;;;;;;;0.32;100.00;92702.31;5042764;28;20496;-51
2023/01/21 03:05:19;;;;;;;29.17;14.88;;;;;;;0.38;100.00;92694.88;4980102;28;20600;-52
2023/01/21 03:08:04;;;;;;;28.20;14.02;;;;;;;0.44;100.00;92692.88;5043568;28;20115;-53
2023/01/21 03:10:52;;;;;;;31.08;15.45;;;;;;;0.40;100.00;92689.69;5046754;28;20025;-54
2023/01/21 03:19:13;;;;;;;57.55;21.77;;;;;;;0.30;100.00;92669.50;5046041;28;20039;-54
2023/01/21 03:21:39;;;;;;;72.85;18.38;;;;;;;0.34;100.00;92645.53;5052097;28;20110;-52
2023/01/21 03:24:05;;;;;;;98.93;20.77;;;;;;;0.42;100.00;92646.47;5050235;28;20021;-54
2023/01/21 03:26:37;;;;;;;67.18;21.50;;;;;;;0.41;100.00;92645.72;5052560;28;20135;-51
2023/01/21 03:29:14;;;;;;;92.82;21.63;;;;;;;0.32;100.00;92634.44;5044270;28;20572;-52
2023/01/21 03:31:42;;;;;;;80.35;19.00;;;;;;;0.39;100.00;92634.63;5049787;28;20397;-54
2023/01/21 03:34:09;;;;;;;79.28;14.27;;;;;;;0.40;100.00;92627.97;5040648;28;20024;-51
2023/01/21 03:36:47;;;;;;;51.58;13.88;;;;;;;0.39;100.00;92625.78;5053398;28;20431;-52
2023/01/21 03:39:53;;;;;;;42.03;14.98;;;;;;;0.19;100.00;92640.44;5048152;28;20032;-54
2023/01/21 03:42:19;;;;;;;61.85;15.27;;;;;;;0.23;100.00;92632.78;5050510;28;20788;-51
2023/01/21 03:44:46;;;;;;;27.98;11.90;;;;;;;0.21;100.00;92637.97;5045063;28;20056;-53
2023/01/21 03:47:33;;;;;;;36.33;12.95;;;;;;;0.10;100.00;92653.56;5048548;28;20038;-51
2023/01/21 03:50:10;;;;;;;68.70;22.08;;;;;;;0.09;100.00;92644.69;5048492;28;20051;-53
2023/01/21 03:52:40;;;;;;;44.85;19.52;;;;;;;0.09;100.00;92652.81;5049398;28;20511;-53
2023/01/21 03:55:06;;;;;;;47.97;19.77;;;;;;;0.00;100.00;92656.56;5044004;28;20085;-51
2023/01/21 03:57:32;;;;;;;46.70;15.98;;;;;;;-0.12;100.00;92671.41;5051608;28;20803;-51
2023/01/21 03:59:57;;;;;;;56.15;16.40;;;;;;;-0.12;100.00;92662.53;5049509;28;20029;-51
2023/01/21 04:02:23;;;;;;;30.33;13.98;;;;;;;-0.19;100.00;92655.66;5049338;28;20497;-52
2023/01/21 04:04:48;;;;;;;29.98;12.38;;;;;;;-0.32;100.00;92647.31;5050585;28;20033;-50
2023/01/21 04:07:15;;;;;;;19.95;10.05;;;;;;;-0.32;100.00;92646.56;5049850;28;20028;-53
2023/01/21 04:09:40;;;;;;;18.58;9.45;;;;;;;-0.28;100.00;92641.66;5048225;28;20121;-52
2023/01/21 04:12:05;;;;;;;19.67;10.02;;;;;;;-0.31;100.00;92643.38;5049964;28;20119;-51
2023/01/21 04:14:31;;;;;;;21.30;11.65;;;;;;;-0.31;100.00;92643.38;5053015;28;20414;-52
2023/01/21 04:16:56;;;;;;;22.98;12.27;;;;;;;-0.33;100.00;92645.84;5053322;28;20419;-51
2023/01/21 04:19:22;;;;;;;26.95;12.32;;;;;;;-0.38;100.00;92635.75;5047301;28;20078;-51
2023/01/21 04:21:47;;;;;;;26.25;13.50;;;;;;;-0.38;100.00;92643.88;5041467;28;20033;-51
2023/01/21 04:24:13;;;;;;;18.83;11.93;;;;;;;-0.31;100.00;92639.91;5036531;28;20037;-50
2023/01/21 04:26:38;;;;;;;25.00;13.65;;;;;;;-0.23;100.00;92635.44;5050685;28;20028;-52
2023/01/21 04:29:04;;;;;;;11.38;6.68;;;;;;;-0.12;100.00;92617.16;5047814;28;20057;-50
2023/01/21 04:31:29;;;;;;;22.42;11.18;;;;;;;-0.09;100.00;92621.56;5049185;28;20459;-52
2023/01/21 04:33:54;;;;;;;12.43;7.45;;;;;;;0.00;100.00;92624.00;5042337;28;20022;-51
2023/01/21 04:36:20;;;;;;;8.73;4.82;;;;;;;0.21;100.00;92616.25;5043952;28;20032;-52
2023/01/21 04:38:45;;;;;;;7.60;5.07;;;;;;;0.28;100.00;92610.28;5047342;28;20416;-50
2023/01/21 04:41:11;;;;;;;6.93;4.00;;;;;;;0.53;100.00;92602.97;5043629;28;20480;-51
2023/01/21 04:43:36;;;;;;;4.97;3.72;;;;;;;0.47;100.00;92613.13;5045184;28;20029;-49
2023/01/21 04:46:01;;;;;;;5.32;3.60;;;;;;;0.53;100.00;92628.16;5049371;28;20025;-54
2023/01/21 04:48:27;;;;;;;5.25;3.47;;;;;;;0.90;100.00;92626.88;5045272;28;20749;-50
2023/01/21 04:50:52;;;;;;;7.00;3.63;;;;;;;1.01;100.00;92616.66;5043190;28;20020;-50
2023/01/21 04:53:18;;;;;;;8.15;4.43;;;;;;;0.97;100.00;92615.47;5044690;28;20037;-51
2023/01/21 04:55:43;;;;;;;10.65;3.58;;;;;;;0.98;100.00;92590.50;5047957;28;20478;-49
2023/01/21 04:58:09;;;;;;;5.80;3.72;;;;;;;0.89;100.00;92579.94;5044709;28;20037;-51
2023/01/21 05:00:34;;;;;;;9.27;4.47;;;;;;;1.07;100.00;92576.56;5046731;28;20067;-50
2023/01/21 05:02:59;;;;;;;4.90;2.88;;;;;;;1.15;100.00;92585.63;5048297;28;20025;-49
2023/01/21 05:05:25;;;;;;;5.35;3.17;;;;;;;1.27;100.00;92600.59;5046928;28;20508;-50
2023/01/21 05:07:54;;;;;;;4.30;2.92;;;;;;;1.49;98.21;92624.84;5045543;28;20033;-49
2023/01/21 05:10:19;;;;;;;3.67;2.25;;;;;;;1.46;98.43;92625.88;5046293;28;20499;-50
2023/01/21 05:12:45;;;;;;;3.25;2.80;;;;;;;1.60;96.87;92636.88;5050284;28;20060;-51
2023/01/21 05:15:11;;;;;;;2.50;1.80;;;;;;;1.50;97.02;92637.22;5046672;28;20063;-52
2023/01/21 05:17:36;;;;;;;5.90;2.90;;;;;;;1.53;96.48;92633.47;5049558;28;20044;-49
2023/01/21 05:20:03;;;;;;;4.13;2.53;;;;;;;1.46;96.88;92636.00;5046251;28;20492;-52
2023/01/21 05:22:28;;;;;;;3.50;2.60;;;;;;;1.58;95.96;92640.09;5043363;28;20435;-52
2023/01/21 05:24:53;;;;;;;4.65;2.35;;;;;;;1.42;96.31;92649.91;5047734;28;20017;-51
2023/01/21 05:27:20;;;;;;;2.25;2.00;;;;;;;1.45;97.66;92645.44;5049541;28;20033;-51
2023/01/21 05:29:46;;;;;;;7.60;3.15;;;;;;;1.66;96.88;92637.53;5041945;28;20044;-48
2023/01/21 05:32:12;;;;;;;1.90;1.63;;;;;;;1.76;95.91;92635.94;5043349;28;20411;-49
2023/01/21 05:34:37;;;;;;;1.75;1.60;;;;;;;1.90;94.76;92643.72;5046794;28;20434;-49
2023/01/21 05:37:02;;;;;;;5.40;1.33;;;;;;;2.02;94.62;92647.03;5046656;28;20044;-51
2023/01/21 05:39:28;;;;;;;2.35;1.52;;;;;;;1.91;94.32;92645.16;5049519;28;20028;-52
2023/01/21 05:41:53;;;;;;;1.75;1.42;;;;;;;1.91;95.02;92639.72;5043139;28;20028;-52
2023/01/21 05:44:19;;;;;;;1.73;1.13;;;;;;;2.03;94.09;92648.50;5047230;28;20017;-49
2023/01/21 05:46:44;;;;;;;2.88;1.95;;;;;;;2.06;92.96;92655.63;5047060;28;20027;-50
2023/01/21 05:49:09;;;;;;;2.75;1.27;;;;;;;1.97;94.37;92656.00;5041110;28;20025;-50
2023/01/21 05:51:35;;;;;;;4.07;2.30;;;;;;;2.01;93.80;92653.72;5044641;28;20035;-50
2023/01/21 05:54:00;;;;;;;2.00;1.60;;;;;;;2.07;93.98;92666.03;5047879;28;20454;-52
2023/01/21 05:56:26;;;;;;;1.58;1.48;;;;;;;2.08;93.00;92662.03;5043679;28;20039;-53
2023/01/21 05:58:51;;;;;;;3.00;2.08;;;;;;;2.05;93.61;92651.44;5039446;28;20108;-50
2023/01/21 06:01:17;;;;;;;3.30;1.88;;;;;;;2.03;94.06;92683.91;5040205;28;20060;-50
2023/01/21 06:03:42;;;;;;;3.35;2.38;;;;;;;2.13;93.31;92695.91;5040271;28;20025;-50
2023/01/21 06:06:08;;;;;;;1.58;1.33;;;;;;;1.98;93.82;92684.69;5047903;28;20033;-51
2023/01/21 06:08:34;;;;;;;3.28;2.03;;;;;;;2.05;94.64;92687.59;5046377;28;20845;-52
2023/01/21 06:10:59;;;;;;;1.48;1.33;;;;;;;2.14;92.81;92692.66;5046269;28;20032;-50
2023/01/21 06:13:24;;;;;;;3.45;1.80;;;;;;;2.20;92.61;92685.19;5044993;28;20017;-49
2023/01/21 06:15:54;;;;;;;4.60;1.45;;;;;;;2.25;92.46;92691.81;5035869;28;20026;-53
2023/01/21 06:18:20;;;;;;;1.77;1.40;;;;;;;2.47;91.46;92691.50;5037556;28;20140;-49
2023/01/21 06:20:45;;;;;;;1.15;1.05;;;;;;;2.59;89.84;92703.75;5042495;28;20024;-51
2023/01/21 06:23:12;;;;;;;2.30;1.90;;;;;;;2.56;89.96;92693.13;5049008;28;20390;-50
2023/01/21 06:25:37;;;;;;;1.73;1.48;;;;;;;2.66;89.14;92697.72;5044734;28;20025;-51
2023/01/21 06:28:02;;;;;;;1.50;1.33;;;;;;;2.73;88.70;92697.13;5045284;28;20550;-50
2023/01/21 06:30:28;;;;;;;5.32;1.77;;;;;;;2.79;87.95;92691.59;5045423;28;20136;-51
2023/01/21 06:32:53;;;;;;;2.60;1.70;;;;;;;2.71;89.02;92702.34;5047765;28;20032;-50
2023/01/21 06:35:19;;;;;;;2.92;1.70;;;;;;;2.68;89.42;92697.22;5047682;28;20017;-50
2023/01/21 06:37:45;;;;;;;2.70;1.70;;;;;;;2.70;90.54;92703.63;5044507;28;20029;-50
2023/01/21 06:40:11;;;;;;;1.45;1.35;;;;;;;2.80;88.75;92712.88;5044179;28;20025;-51
2023/01/21 06:42:37;;;;;;;1.75;1.58;;;;;;;2.95;87.35;92721.34;5045221;28;20029;-50
2023/01/21 06:45:03;;;;;;;2.63;2.10;;;;;;;2.72;88.55;92727.63;5043850;28;20027;-49
2023/01/21 06:47:28;;;;;;;1.50;1.38;;;;;;;3.04;86.86;92731.16;5045863;28;20032;-53
2023/01/21 06:49:54;;;;;;;3.05;1.80;;;;;;;2.91;87.06;92741.97;5049868;28;20515;-50
2023/01/21 06:52:20;;;;;;;1.42;1.33;;;;;;;2.91;87.36;92748.19;5046311;28;20108;-50
2023/01/21 06:54:47;;;;;;;1.80;1.48;;;;;;;2.99;87.52;92756.50;5044987;28;20104;-50
2023/01/21 06:57:13;;;;;;;2.22;1.85;;;;;;;2.90;87.63;92749.41;5038559;28;20025;-51
2023/01/21 06:59:38;;;;;;;1.73;1.50;;;;;;;3.20;86.42;92751.25;5044546;28;20198;-50
2023/01/21 07:02:04;;;;;;;2.70;1.33;;;;;;;3.22;86.40;92732.38;5037163;28;20035;-50
2023/01/21 07:04:29;;;;;;;1.80;1.48;;;;;;;3.52;84.17;92747.28;5040386;28;20434;-51
2023/01/21 07:06:55;;;;;;;1.52;1.42;;;;;;;3.40;85.41;92756.88;5041397;28;20032;-50
2023/01/21 07:09:20;;;;;;;2.05;1.70;;;;;;;3.70;84.03;92753.97;5040987;28;20122;-49
2023/01/21 07:11:46;;;;;;;1.70;1.60;;;;;;;4.27;82.72;92764.13;5041644;28;20024;-50
2023/01/21 07:14:12;;;;;;;2.85;1.30;;;;;;;5.40;76.94;92773.03;5037770;28;20431;-51
2023/01/21 07:16:38;;;;;;;1.80;1.50;;;;;;;5.99;73.95;92768.69;5043466;28;20024;-50
2023/01/21 07:19:04;;;;;;;3.17;1.45;;;;;;;6.32;71.38;92767.84;5037081;28;20033;-50
2023/01/21 07:21:29;;;;;;;0.95;0.90;;;;;;;6.71;69.23;92772.31;5037431;28;20459;-50
2023/01/21 07:23:55;;;;;;;0.90;0.90;;;;;;;7.28;67.05;92775.66;5038092;28;20017;-48
2023/01/21 07:26:20;;;;;;;1.60;1.50;;;;;;;7.40;67.01;92791.31;5039606;28;20027;-51
2023/01/21 07:28:46;;;;;;;1.20;1.10;;;;;;;6.90;67.26;92797.47;5038053;28;20156;-50
2023/01/21 07:31:12;;;;;;;1.88;1.25;;;;;;;7.65;65.27;92808.75;5034871;28;20087;-50
2023/01/21 07:33:38;;;;;;;1.42;1.20;;;;;;;8.11;64.65;92797.84;5037091;28;20088;-51
2023/01/21 07:36:04;;;;;;;2.40;1.35;;;;;;;7.94;63.83;92797.66;5039149;28;20017;-53
2023/01/21 07:38:30;;;;;;;1.70;1.33;;;;;;;7.71;64.57;92799.63;5038698;28;20625;-49
2023/01/21 07:40:55;;;;;;;2.22;1.42;;;;;;;7.50;64.92;92786.75;5037207;28;20029;-50
2023/01/21 07:43:21;;;;;;;1.65;1.35;;;;;;;7.06;66.13;92787.31;5037592;28;20086;-52
2023/01/21 07:45:46;;;;;;;3.75;1.83;;;;;;;6.71;67.37;92788.78;5035926;28;20068;-51
2023/01/21 07:48:12;;;;;;;1.98;1.70;;;;;;;6.89;68.85;92785.75;5035940;28;20507;-51
2023/01/21 07:50:37;;;;;;;1.85;1.55;;;;;;;7.63;64.83;92778.34;5038690;28;20132;-51
2023/01/21 07:53:03;;;;;;;2.00;1.48;;;;;;;8.13;62.33;92763.03;5040151;28;20029;-50
2023/01/21 07:55:29;;;;;;;3.10;2.13;;;;;;;8.22;62.67;92759.00;5040029;28;20025;-49
2023/01/21 07:57:55;;;;;;;3.83;1.95;;;;;;;8.30;63.74;92755.00;5040974;28;20025;-51
2023/01/21 08:00:22;;;;;;;2.72;2.00;;;;;;;8.87;60.74;92749.78;5044481;28;20064;-50
2023/01/21 08:02:52;;;;;;;1.48;1.33;;;;;;;8.02;62.75;92755.16;5040815;28;20047;-49
2023/01/21 08:05:18;;;;;;;6.57;3.80;;;;;;;8.80;64.17;92758.06;5037515;28;20031;-51
2023/01/21 08:07:43;;;;;;;3.10;1.63;;;;;;;9.97;57.46;92754.41;5034470;28;20907;-50
2023/01/21 08:10:09;;;;;;;2.10;1.60;;;;;;;10.32;57.42;92756.03;5039192;28;20044;-51
2023/01/21 08:12:35;;;;;;;1.50;1.40;;;;;;;11.65;52.66;92747.50;5039518;28;20028;-53
2023/01/21 08:15:00;;;;;;;1.70;1.10;;;;;;;12.57;50.09;92753.91;5040133;28;20482;-52
2023/01/21 08:17:26;;;;;;;0.77;0.77;;;;;;;14.05;46.85;92757.78;5039228;28;20125;-51
2023/01/21 08:19:51;;;;;;;1.10;1.00;;;;;;;13.40;45.40;92760.78;5036027;28;20024;-49
2023/01/21 08:22:17;;;;;;;1.45;1.20;;;;;;;12.73;48.39;92769.69;5047565;28;20617;-50
2023/01/21 08:24:42;;;;;;;1.25;1.15;;;;;;;13.46;45.10;92781.38;5040200;28;20131;-51
2023/01/21 08:27:08;;;;;;;2.95;1.30;;;;;;;12.30;49.15;92780.91;5039574;28;20032;-50
2023/01/21 08:29:33;;;;;;;1.75;1.17;;;;;;;13.09;46.88;92788.31;5038650;28;20166;-49
2023/01/21 08:31:58;;;;;;;1.27;1.13;;;;;;;14.11;44.96;92797.06;5042794;28;20033;-51
2023/01/21 08:34:24;;;;;;;1.52;1.00;;;;;;;14.84;43.50;92791.72;5038753;28;20025;-52
2023/01/21 08:36:50;;;;;;;3.08;1.40;;;;;;;15.83;39.93;92782.31;5038840;28;20028;-53
2023/01/21 08:39:15;;;;;;;1.50;1.35;;;;;;;13.64;43.37;92787.50;5039166;28;20037;-50
2023/01/21 08:41:42;;;;;;;3.50;1.35;;;;;;;14.43;41.88;92775.09;5042440;28;20408;-50
2023/01/21 08:44:08;;;;;;;5.13;2.70;;;;;;;14.48;42.87;92776.09;5042073;28;20036;-50
2023/01/21 08:46:34;;;;;;;1.08;0.98;;;;;;;14.26;42.85;92771.75;5037701;28;20025;-51
2023/01/21 08:48:59;;;;;;;3.72;1.08;;;;;;;14.21;42.37;92767.97;5044041;28;20037;-51
2023/01/21 08:51:25;;;;;;;5.15;1.42;;;;;;;14.81;43.02;92760.28;5043206;28;20025;-49
2023/01/21 08:53:52;;;;;;;2.08;0.82;;;;;;;16.67;39.33;92761.81;5041809;28;20135;-48
2023/01/21 08:56:18;;;;;;;4.35;1.15;;;;;;;16.82;38.43;92758.53;5036695;28;20021;-52
2023/01/21 08:58:44;;;;;;;2.67;1.70;;;;;;;17.55;36.70;92771.91;5042564;28;20108;-53
2023/01/21 09:01:12;;;;;;;4.25;1.40;;;;;;;16.33;40.43;92762.47;5038858;28;20136;-51
2023/01/21 09:03:37;;;;;;;1.25;0.80;;;;;;;17.27;37.07;92762.63;5039775;28;20064;-50
2023/01/21 09:06:04;;;;;;;3.65;1.15;;;;;;;16.78;38.42;92754.78;5037312;28;20036;-49
2023/01/21 09:08:30;;;;;;;1.48;1.05;;;;;;;15.46;39.77;92729.16;5040473;28;20420;-50
2023/01/21 09:11:00;;;;;;;1.83;0.90;;;;;;;16.02;40.30;92734.06;5041478;28;20028;-49
2023/01/21 09:13:32;;;;;;;1.63;0.88;;;;;;;16.17;39.01;92734.34;5038996;28;20024;-53
2023/01/21 09:15:58;;;;;;;2.17;1.33;;;;;;;15.58;41.35;92727.16;5041347;28;20020;-49
2023/01/21 09:18:24;;;;;;;2.03;1.88;;;;;;;16.51;40.90;92736.47;5040418;28;20031;-51
2023/01/21 09:20:49;;;;;;;1.90;1.20;;;;;;;16.14;39.33;92738.31;5039536;28;20033;-50
2023/01/21 09:23:24;;;;;;;1.67;0.93;;;;;;;15.72;40.77;92735.69;5039884;28;20041;-50
2023/01/21 09:25:59;;;;;;;2.80;1.30;;;;;;;16.56;39.83;92737.44;5038998;28;20111;-52
2023/01/21 09:28:25;;;;;;;1.70;1.10;;;;;;;16.93;38.50;92731.97;5040818;28;20024;-52
2023/01/21 09:30:58;;;;;;;2.53;1.08;;;;;;;16.20;41.40;92733.13;5040671;28;20044;-52
2023/01/21 09:33:24;;;;;;;2.03;1.33;;;;;;;17.00;39.35;92753.31;5039410;28;20090;-50
2023/01/21 09:35:56;;;;;;;2.47;1.45;;;;;;;17.88;37.35;92747.28;5041506;28;20432;-52
2023/01/21 09:38:22;;;;;;;2.17;1.10;;;;;;;17.69;37.24;92741.31;5038807;28;20063;-52
2023/01/21 09:40:48;;;;;;;1.55;0.98;;;;;;;16.63;39.11;92736.50;5040380;28;20018;-50
2023/01/21 09:43:23;;;;;;;2.10;1.40;;;;;;;17.40;39.82;92741.72;5039538;28;20022;-51
2023/01/21 09:45:49;;;;;;;1.42;1.17;;;;;;;16.83;38.77;92737.69;5040581;28;20037;-50
2023/01/21 09:48:23;;;;;;;2.20;1.35;;;;;;;16.19;40.78;92742.09;5041399;28;20013;-49
2023/01/21 09:50:49;;;;;;;2.55;1.38;;;;;;;16.39;39.95;92723.84;5039311;28;20028;-50
2023/01/21 09:53:26;;;;;;;2.05;1.20;;;;;;;16.79;39.82;92733.91;5043186;28;20078;-49
2023/01/21 09:55:52;;;;;;;2.55;1.20;;;;;;;16.90;39.41;92738.75;5038296;28;20123;-52
2023/01/21 09:58:30;;;;;;;3.67;1.70;;;;;;;16.31;40.44;92740.78;5043246;28;20385;-51
2023/01/21 10:00:58;;;;;;;1.90;1.30;;;;;;;16.01;41.48;92735.38;5040736;28;20017;-50
2023/01/21 10:03:51;;;;;;;1.83;1.15;;;;;;;15.38;42.45;92733.44;5046134;28;20040;-50
2023/01/21 10:06:16;;;;;;;2.10;1.42;;;;;;;15.07;43.25;92722.41;5048868;28;20028;-54
2023/01/21 10:08:57;;;;;;;3.10;1.27;;;;;;;14.72;44.50;92716.63;5039691;28;20170;-50
2023/01/21 10:11:37;;;;;;;1.08;0.95;;;;;;;15.04;43.61;92718.03;5041382;28;20625;-50
2023/01/21 10:14:19;;;;;;;0.70;0.70;;;;;;;14.60;44.39;92707.47;5052096;28;20052;-49
2023/01/21 10:17:04;;;;;;;2.05;1.40;;;;;;;14.77;45.84;92693.31;5040613;28;20116;-49
2023/01/21 10:19:38;;;;;;;5.25;1.23;;;;;;;14.95;44.33;92691.75;5039063;28;20071;-52
2023/01/21 10:22:19;;;;;;;1.65;1.13;;;;;;;15.51;43.46;92680.78;5040845;28;20033;-51
2023/01/21 10:24:51;;;;;;;2.42;1.40;;;;;;;15.40;43.41;92678.66;5042265;28;20170;-53
2023/01/21 10:27:19;;;;;;;2.92;1.38;;;;;;;15.17;44.14;92668.19;5042277;28;20139;-50
2023/01/21 10:29:47;;;;;;;2.70;1.15;;;;;;;15.12;43.76;92682.41;5043092;28;20567;-50
2023/01/21 10:32:19;;;;;;;4.30;1.98;;;;;;;13.68;49.84;92672.00;5040632;28;20029;-50
2023/01/21 10:34:50;;;;;;;2.72;1.70;;;;;;;14.55;46.82;92664.09;5041102;28;20024;-53
2023/01/21 10:37:28;;;;;;;2.92;1.27;;;;;;;15.53;44.69;92660.69;5037717;28;20029;-49
2023/01/21 10:39:59;;;;;;;8.20;2.10;;;;;;;16.17;43.67;92666.78;5035454;28;20040;-50
2023/01/21 10:42:57;;;;;;;2.65;1.02;;;;;;;16.24;42.29;92669.31;5040716;28;20060;-50
2023/01/21 10:45:54;;;;;;;1.23;1.00;;;;;;;16.28;42.73;92672.38;5043234;28;20047;-50
2023/01/21 10:48:54;;;;;;;1.02;0.93;;;;;;;15.15;45.00;92686.78;5041729;28;20048;-49
2023/01/21 10:51:25;;;;;;;2.50;1.10;;;;;;;15.28;44.25;92688.28;5031546;28;20049;-50
2023/01/21 10:54:05;;;;;;;3.58;1.20;;;;;;;14.98;44.97;92671.09;5040845;28;20123;-50
2023/01/21 10:57:07;;;;;;;1.65;1.02;;;;;;;14.61;46.64;92675.59;5041967;28;20073;-50
2023/01/21 10:59:35;;;;;;;5.57;1.40;;;;;;;14.62;45.98;92677.03;5043781;28;20066;-52
2023/01/21 11:02:24;;;;;;;1.95;1.27;;;;;;;14.71;44.82;92684.59;5038657;28;20029;-51
2023/01/21 11:04:50;;;;;;;1.60;0.70;;;;;;;14.98;45.00;92670.38;5037289;28;20033;-51
2023/01/21 11:07:18;;;;;;;1.92;1.20;;;;;;;14.06;47.21;92675.97;5042912;28;20574;-51
2023/01/21 11:09:45;;;;;;;1.20;1.10;;;;;;;13.93;47.36;92696.59;5038510;28;20032;-50
2023/01/21 11:12:18;;;;;;;2.92;0.95;;;;;;;14.17;47.41;92684.41;5036807;28;20044;-50
2023/01/21 11:14:47;;;;;;;2.38;0.85;;;;;;;14.27;47.69;92684.38;5038023;28;20044;-50
2023/01/21 11:17:26;;;;;;;;;;;;;;;13.82;50.22;92675.03;5036595;28;20028;-54
2023/01/21 11:19:58;;;;;;;1.67;0.90;;;;;;;15.32;46.26;92669.81;5037987;28;20561;-51
2023/01/21 11:22:24;;;;;;;2.15;0.93;;;;;;;14.57;47.84;92671.81;5038483;28;20041;-52
2023/01/21 11:24:51;;;;;;;1.42;0.98;;;;;;;14.55;46.85;92660.56;5037253;28;20087;-52
2023/01/21 11:27:37;;;;;;;28.27;5.90;;;;;;;15.15;45.45;92679.16;5036513;28;20112;-51
2023/01/21 11:30:05;;;;;;;4.57;1.70;;;;;;;15.06;44.92;92668.13;5039531;28;20057;-50
2023/01/21 11:32:30;;;;;;;1.92;1.00;;;;;;;14.58;46.75;92682.31;5042578;28;20048;-53
2023/01/21 11:35:01;;;;;;;2.05;1.50;;;;;;;13.92;48.64;92680.56;5040315;28;20052;-50
2023/01/21 11:37:28;;;;;;;1.20;0.73;;;;;;;13.10;49.81;92676.16;5038816;28;20025;-51
2023/01/21 11:40:17;;;;;;;2.00;1.17;;;;;;;13.83;50.12;92673.72;5043640;28;20476;-51
2023/01/21 11:42:52;;;;;;;2.47;1.40;;;;;;;13.96;48.51;92653.06;5045205;28;20032;-52
2023/01/21 11:45:32;;;;;;;2.25;1.10;;;;;;;13.33;50.02;92670.16;5044982;28;20029;-50